Time;durP1;ratioP1;P1;durP2;ratioP2;P2;SDS_P1;SDS_P2;PMS_P1;PMS_P2;Temp;Humidity;BMP_temperature;BMP_pressure;BME280_temperature;BME280_humidity;BME280_pressure;Samples;Min_cycle;Max_cycle;Signal;HPM_P1;HPM_P2
2021/07/24 00:00:13;;;;;;;9.30;6.23;;;;;;;17.17;73.85;96707.28;128148;1092;32054;-94
2021/07/24 00:03:04;;;;;;;9.20;5.63;;;;;;;17.18;73.71;96712.35;128431;1093;33818;-94
2021/07/24 00:05:36;;;;;;;7.38;5.50;;;;;;;17.12;73.86;96705.56;128349;1093;51715;-94
2021/07/24 00:08:08;;;;;;;8.48;6.10;;;;;;;17.07;74.18;96705.74;128306;1093;37006;-95
2021/07/24 00:10:39;;;;;;;8.40;5.73;;;;;;;16.97;74.24;96706.06;128438;1093;32528;-94
2021/07/24 00:13:11;;;;;;;8.03;5.78;;;;;;;16.90;74.41;96697.73;128398;1093;33423;-95
2021/07/24 00:15:42;;;;;;;8.95;5.65;;;;;;;16.88;74.31;96695.34;128265;1091;33131;-93
2021/07/24 00:18:14;;;;;;;8.60;6.05;;;;;;;16.88;74.26;96691.88;128247;1093;54808;-94
2021/07/24 00:20:46;;;;;;;8.88;5.90;;;;;;;16.89;74.19;96696.95;128220;1093;33199;-95
2021/07/24 00:23:17;;;;;;;9.35;6.20;;;;;;;16.94;74.00;96698.66;128519;1093;32700;-94
2021/07/24 00:25:48;;;;;;;9.48;5.60;;;;;;;16.86;74.07;96691.41;128810;1093;27506;-93
2021/07/24 00:28:20;;;;;;;8.50;5.83;;;;;;;16.76;73.92;96692.54;129956;1092;31314;-94
2021/07/24 00:30:52;;;;;;;8.90;6.05;;;;;;;16.72;74.01;96693.46;129985;1092;62330;-95
2021/07/24 00:33:23;;;;;;;8.18;6.35;;;;;;;16.60;74.66;96692.16;128542;1093;35449;-94
2021/07/24 00:35:55;;;;;;;8.18;6.05;;;;;;;16.42;75.19;96692.48;128580;1093;34306;-94
2021/07/24 00:38:27;;;;;;;10.20;6.65;;;;;;;16.35;75.55;96687.60;128507;1091;52631;-95
2021/07/24 00:41:05;;;;;;;9.68;6.30;;;;;;;16.34;75.66;96699.41;128449;1092;53749;-95
2021/07/24 00:43:39;;;;;;;12.48;7.20;;;;;;;16.29;75.75;96696.86;128509;1093;31881;-96
2021/07/24 00:46:12;;;;;;;12.28;7.28;;;;;;;16.28;75.82;96689.94;128467;1092;33149;-95
2021/07/24 00:48:45;;;;;;;12.78;6.93;;;;;;;16.32;76.01;96698.91;128641;1092;39923;-95
2021/07/24 00:51:26;;;;;;;9.55;6.73;;;;;;;16.37;76.05;96688.08;128558;1093;43467;-95
2021/07/24 00:53:58;;;;;;;12.80;7.75;;;;;;;16.46;76.03;96688.06;128576;1092;46661;-95
2021/07/24 00:56:31;;;;;;;8.88;6.43;;;;;;;16.52;75.98;96687.61;128386;1093;37651;-96
2021/07/24 00:59:02;;;;;;;9.33;7.00;;;;;;;16.53;75.66;96686.51;128420;1093;33739;-94
2021/07/24 01:01:36;;;;;;;11.25;8.00;;;;;;;16.56;75.68;96683.20;128568;1091;33957;-95
2021/07/24 01:04:09;;;;;;;11.90;8.10;;;;;;;16.66;75.80;96686.67;128624;1091;30247;-92
2021/07/24 01:06:43;;;;;;;12.23;7.88;;;;;;;16.68;76.13;96685.28;128531;1093;40544;-95
2021/07/24 01:09:14;;;;;;;11.90;7.83;;;;;;;16.66;75.94;96684.00;128459;1093;32719;-95
2021/07/24 01:11:46;;;;;;;9.35;7.00;;;;;;;16.65;75.98;96680.53;128325;1093;34458;-94
2021/07/24 01:14:18;;;;;;;10.05;7.48;;;;;;;16.66;75.91;96684.00;128426;1093;29607;-94
2021/07/24 01:16:49;;;;;;;10.53;7.15;;;;;;;16.66;76.10;96678.64;128384;1091;28728;-94
2021/07/24 01:19:21;;;;;;;12.10;8.20;;;;;;;16.62;76.11;96676.61;128477;1092;28293;-94
2021/07/24 01:21:52;;;;;;;12.38;7.13;;;;;;;16.57;75.82;96673.28;128442;1092;32432;-95
2021/07/24 01:24:24;;;;;;;11.05;7.68;;;;;;;16.50;75.76;96676.44;128405;1091;39414;-94
2021/07/24 01:26:55;;;;;;;10.60;7.10;;;;;;;16.38;75.79;96665.56;128450;1093;32574;-95
2021/07/24 01:29:27;;;;;;;9.50;6.65;;;;;;;16.30;76.01;96669.80;128519;1092;50487;-93
2021/07/24 01:31:58;;;;;;;9.75;7.28;;;;;;;16.32;76.11;96672.16;128418;1093;46153;-94
2021/07/24 01:34:29;;;;;;;10.90;7.40;;;;;;;16.33;76.27;96661.16;128376;1092;50768;-94
2021/07/24 01:37:01;;;;;;;8.43;6.75;;;;;;;16.31;76.19;96665.23;128565;1093;30677;-95
2021/07/24 01:39:33;;;;;;;10.03;6.90;;;;;;;16.30;76.23;96664.44;128479;1092;29854;-92
2021/07/24 01:42:04;;;;;;;9.25;6.43;;;;;;;16.30;76.11;96661.77;128533;1093;28809;-94
2021/07/24 01:44:36;;;;;;;8.70;6.25;;;;;;;16.33;75.89;96661.16;128435;1093;29667;-93
2021/07/24 01:47:08;;;;;;;10.33;7.05;;;;;;;16.36;75.68;96662.42;128319;1091;75599;-93
2021/07/24 01:52:48;;;;;;;8.00;5.63;;;;;;;16.40;75.53;96660.69;128431;1093;33532;-93
2021/07/24 01:55:27;;;;;;;9.93;6.30;;;;;;;16.33;75.18;96653.14;128534;1093;37437;-94
2021/07/24 01:58:02;;;;;;;10.20;6.08;;;;;;;16.32;75.43;96651.53;128582;1093;32915;-94
2021/07/24 02:00:39;;;;;;;8.68;5.63;;;;;;;16.32;75.28;96650.75;128540;1093;31687;-94
2021/07/24 02:03:12;;;;;;;11.75;6.78;;;;;;;16.31;75.01;96649.17;128525;1093;36324;-95
2021/07/24 02:05:49;;;;;;;8.03;5.83;;;;;;;16.20;74.95;96653.28;128510;1092;37805;-96
2021/07/24 02:08:23;;;;;;;8.15;5.50;;;;;;;16.23;75.54;96644.63;128359;1091;50275;-95
2021/07/24 02:10:55;;;;;;;10.00;5.93;;;;;;;16.27;75.01;96642.89;128613;1093;41379;-95
2021/07/24 02:13:26;;;;;;;7.70;5.20;;;;;;;16.26;75.13;96634.08;128661;1092;32495;-95
2021/07/24 02:15:58;;;;;;;8.45;5.78;;;;;;;16.28;74.92;96641.78;128621;1093;34602;-95
2021/07/24 02:18:31;;;;;;;8.98;5.60;;;;;;;16.30;74.92;96637.69;128452;1092;37815;-94
2021/07/24 02:21:03;;;;;;;8.00;5.45;;;;;;;16.27;74.46;96646.34;128658;1092;38103;-95
2021/07/24 02:23:35;;;;;;;7.68;5.53;;;;;;;16.22;74.74;96643.05;128446;1093;36530;-95
2021/07/24 02:26:08;;;;;;;7.85;5.95;;;;;;;16.21;74.44;96638.80;128786;1091;34473;-95
2021/07/24 02:28:40;;;;;;;8.13;5.50;;;;;;;16.16;74.42;96646.96;128434;1093;44973;-95
2021/07/24 02:31:11;;;;;;;9.70;5.95;;;;;;;16.03;74.42;96643.31;128659;1092;40652;-95
2021/07/24 02:33:43;;;;;;;9.68;6.40;;;;;;;15.93;74.85;96646.31;128527;1091;50793;-96
2021/07/24 02:36:14;;;;;;;8.85;5.75;;;;;;;15.77;74.93;96631.80;128647;1092;37799;-95
2021/07/24 02:38:46;;;;;;;7.05;5.13;;;;;;;15.55;75.11;96635.30;128529;1093;36733;-95
2021/07/24 02:41:17;;;;;;;9.05;5.13;;;;;;;15.44;75.86;96643.59;128538;1093;34342;-95
2021/07/24 02:43:49;;;;;;;8.40;5.85;;;;;;;15.43;76.25;96644.69;128590;1093;31450;-95
2021/07/24 02:46:20;;;;;;;9.55;6.60;;;;;;;15.50;76.48;96641.58;128557;1092;31758;-95
2021/07/24 02:48:52;;;;;;;8.40;6.28;;;;;;;15.66;76.83;96644.66;128650;1093;33404;-94
2021/07/24 02:51:24;;;;;;;9.73;6.15;;;;;;;15.75;77.04;96642.78;128437;1092;55983;-94
2021/07/24 02:53:55;;;;;;;9.08;6.60;;;;;;;15.83;77.05;96651.93;128537;1091;39947;-95
2021/07/24 02:56:27;;;;;;;8.60;6.20;;;;;;;15.82;76.95;96648.47;128404;1093;35025;-94
2021/07/24 02:58:58;;;;;;;8.38;6.40;;;;;;;15.81;77.44;96646.90;128295;1093;28374;-94
2021/07/24 03:01:30;;;;;;;9.15;6.55;;;;;;;15.84;77.22;96648.95;128072;1093;31859;-94
2021/07/24 03:04:01;;;;;;;7.80;6.05;;;;;;;15.85;77.11;96650.52;128424;1093;31160;-93
2021/07/24 03:06:33;;;;;;;9.23;6.83;;;;;;;15.87;76.94;96648.32;128446;1091;26510;-93
2021/07/24 03:09:06;;;;;;;9.98;6.90;;;;;;;15.84;77.10;96651.63;128377;1093;28249;-93
2021/07/24 03:11:39;;;;;;;11.40;6.88;;;;;;;15.86;77.24;96659.33;128327;1093;31109;-94
2021/07/24 03:14:10;;;;;;;10.35;6.35;;;;;;;15.74;77.27;96649.22;128437;1091;34294;-94
2021/07/24 03:16:42;;;;;;;9.55;6.35;;;;;;;15.62;77.38;96652.51;128435;1091;31832;-91
2021/07/24 03:19:13;;;;;;;9.13;6.58;;;;;;;15.57;77.47;96646.47;128221;1093;22944;-86
2021/07/24 03:21:44;;;;;;;8.50;6.38;;;;;;;15.60;77.64;96651.22;127983;1092;22804;-86
2021/07/24 03:24:16;;;;;;;10.25;7.03;;;;;;;15.63;77.40;96655.97;128026;1093;34998;-87
2021/07/24 03:26:47;;;;;;;9.48;6.78;;;;;;;15.62;77.49;96649.02;128162;1093;22847;-87
2021/07/24 03:29:18;;;;;;;8.03;6.03;;;;;;;15.59;77.45;96653.11;128147;1092;22834;-87
2021/07/24 03:31:49;;;;;;;9.88;6.58;;;;;;;15.52;77.37;96652.75;128086;1092;22837;-88
2021/07/24 03:34:21;;;;;;;8.95;5.98;;;;;;;15.57;77.72;96657.16;127629;1092;40546;-87
2021/07/24 03:36:52;;;;;;;9.78;6.60;;;;;;;15.57;77.76;96652.59;127607;1093;22813;-87
2021/07/24 03:39:24;;;;;;;8.63;6.40;;;;;;;15.64;77.96;96652.98;128096;1092;25199;-88
2021/07/24 03:41:56;;;;;;;9.20;6.87;;;;;;;15.78;77.91;96658.22;127822;1092;22773;-87
2021/07/24 03:44:27;;;;;;;10.15;7.28;;;;;;;15.90;77.92;96660.27;127755;1093;22697;-87
2021/07/24 03:46:58;;;;;;;12.98;7.75;;;;;;;15.97;77.71;96647.25;127690;1093;24743;-88
2021/07/24 03:49:29;;;;;;;9.28;6.85;;;;;;;16.04;77.76;96656.38;127953;1091;23395;-86
2021/07/24 03:52:01;;;;;;;10.35;7.43;;;;;;;16.09;77.80;96652.00;127790;1093;26119;-87
2021/07/24 03:54:32;;;;;;;9.23;6.80;;;;;;;16.13;77.54;96648.38;128009;1093;23318;-86
2021/07/24 03:57:04;;;;;;;9.60;6.70;;;;;;;16.23;77.65;96652.65;127960;1093;22833;-86
2021/07/24 03:59:35;;;;;;;10.85;7.60;;;;;;;16.29;77.79;96648.70;127842;1092;23139;-86
2021/07/24 04:02:11;;;;;;;9.73;7.03;;;;;;;16.27;77.51;96653.59;127505;1093;26401;-86
2021/07/24 04:04:45;;;;;;;8.38;6.65;;;;;;;16.27;77.59;96653.59;127788;1093;22939;-86
2021/07/24 04:07:17;;;;;;;12.25;6.98;;;;;;;16.37;77.69;96650.61;127627;1093;22806;-87
2021/07/24 04:09:48;;;;;;;10.35;6.48;;;;;;;16.38;77.68;96644.16;127959;1093;24109;-86
2021/07/24 04:12:19;;;;;;;11.85;7.45;;;;;;;16.42;77.81;96653.13;128103;1092;22820;-87
2021/07/24 04:14:51;;;;;;;9.38;6.80;;;;;;;16.49;77.84;96655.34;128000;1092;24451;-87
2021/07/24 04:17:22;;;;;;;12.68;8.20;;;;;;;16.60;77.79;96649.34;127959;1093;23762;-87
2021/07/24 04:19:56;;;;;;;11.93;8.08;;;;;;;16.71;77.91;96649.06;127647;1093;22802;-86
2021/07/24 04:22:27;;;;;;;10.98;7.93;;;;;;;16.83;77.87;96647.31;127668;1092;22826;-86
2021/07/24 04:24:59;;;;;;;9.70;7.75;;;;;;;16.97;77.78;96657.06;128133;1093;50553;-87
2021/07/24 04:27:30;;;;;;;12.20;7.83;;;;;;;17.07;77.51;96652.17;127988;1092;26395;-87
2021/07/24 04:30:01;;;;;;;9.73;7.33;;;;;;;17.13;77.27;96650.09;127978;1093;22804;-86
2021/07/24 04:32:33;;;;;;;10.10;7.48;;;;;;;17.23;76.92;96655.13;127790;1093;22826;-86
2021/07/24 04:35:05;;;;;;;10.13;7.80;;;;;;;17.36;76.63;96645.31;127781;1093;24039;-86
2021/07/24 04:37:36;;;;;;;10.30;7.87;;;;;;;17.46;76.43;96647.66;128060;1092;22789;-85
2021/07/24 04:40:09;;;;;;;11.58;7.80;;;;;;;17.59;76.24;96646.63;127810;1092;26440;-82
2021/07/24 04:42:40;;;;;;;11.98;7.83;;;;;;;17.68;75.77;96652.78;127657;1092;22849;-85
2021/07/24 04:45:13;;;;;;;11.30;7.93;;;;;;;17.78;75.67;96641.70;127641;1091;26042;-85
2021/07/24 04:47:44;;;;;;;11.55;7.10;;;;;;;17.94;75.90;96643.82;127941;1092;22928;-86
2021/07/24 04:50:16;;;;;;;10.60;7.85;;;;;;;18.06;75.39;96643.91;127722;1092;26325;-86
2021/07/24 04:52:48;;;;;;;9.33;7.50;;;;;;;18.20;75.01;96644.45;127710;1093;22816;-86
2021/07/24 04:55:21;;;;;;;10.95;7.30;;;;;;;18.33;74.65;96643.41;128157;1092;23233;-86
2021/07/24 04:57:52;;;;;;;10.28;7.80;;;;;;;18.50;74.25;96636.34;128098;1092;23947;-86
2021/07/24 05:00:24;;;;;;;10.20;7.75;;;;;;;18.79;74.11;96638.95;127850;1093;25887;-87
2021/07/24 05:02:56;;;;;;;9.75;7.18;;;;;;;19.06;73.08;96645.66;128065;1092;25426;-87
2021/07/24 05:05:27;;;;;;;10.28;7.70;;;;;;;19.99;73.11;96638.73;128073;1091;24310;-86
2021/07/24 05:07:59;;;;;;;9.57;7.13;;;;;;;21.80;71.69;96640.20;128071;1093;22836;-85
2021/07/24 05:10:30;;;;;;;9.48;6.63;;;;;;;23.56;69.38;96635.30;127597;1092;23708;-85
2021/07/24 05:13:01;;;;;;;9.05;6.80;;;;;;;24.94;65.87;96641.16;128006;1093;22851;-86
2021/07/24 05:15:33;;;;;;;8.73;6.50;;;;;;;26.00;63.54;96643.31;127659;1093;22816;-86
2021/07/24 05:18:04;;;;;;;9.73;6.93;;;;;;;26.88;60.91;96636.80;128009;1093;22827;-85
2021/07/24 05:20:36;;;;;;;10.03;6.80;;;;;;;27.94;59.26;96636.23;127710;1092;22810;-86
2021/07/24 05:23:08;;;;;;;9.93;6.10;;;;;;;28.95;57.46;96638.33;127752;1092;26070;-84
2021/07/24 05:25:39;;;;;;;8.13;6.10;;;;;;;29.59;53.33;96639.93;128033;1093;25312;-85
2021/07/24 05:28:11;;;;;;;8.58;6.00;;;;;;;29.92;52.49;96638.48;128041;1093;53086;-85
2021/07/24 05:30:43;;;;;;;8.45;6.43;;;;;;;30.50;51.52;96644.96;127856;1093;22790;-85
2021/07/24 05:33:14;;;;;;;10.93;6.50;;;;;;;30.95;49.67;96636.63;128125;1093;23385;-86
2021/07/24 05:35:49;;;;;;;9.38;6.03;;;;;;;31.48;48.65;96633.17;127973;1092;26614;-85
2021/07/24 05:38:20;;;;;;;8.05;6.03;;;;;;;31.89;46.42;96638.42;127894;1091;22789;-87
2021/07/24 05:40:52;;;;;;;9.10;6.23;;;;;;;32.15;45.45;96636.03;128187;1093;23792;-86
2021/07/24 05:43:23;;;;;;;6.00;5.35;;;;;;;32.74;44.78;96636.09;128091;1093;24049;-84
2021/07/24 05:45:55;;;;;;;8.55;6.05;;;;;;;33.39;43.70;96630.05;128041;1093;25223;-87
2021/07/24 05:48:26;;;;;;;6.98;6.00;;;;;;;34.03;42.59;96633.24;128163;1092;25347;-88
2021/07/24 05:50:58;;;;;;;8.70;5.15;;;;;;;34.47;41.71;96640.73;128068;1093;50094;-86
2021/07/24 05:53:29;;;;;;;7.55;5.53;;;;;;;34.88;40.25;96638.45;128182;1093;23046;-85
2021/07/24 05:56:02;;;;;;;5.90;4.87;;;;;;;35.07;39.68;96638.28;128210;1092;31712;-85
2021/07/24 05:58:33;;;;;;;7.33;5.90;;;;;;;34.47;38.53;96640.73;128192;1093;22818;-85
2021/07/24 06:01:08;;;;;;;6.83;5.20;;;;;;;34.39;38.73;96638.63;128189;1092;26002;-85
2021/07/24 06:03:40;;;;;;;7.40;5.58;;;;;;;35.01;38.79;96633.74;128137;1092;22820;-85
2021/07/24 06:06:11;;;;;;;6.78;5.55;;;;;;;35.49;38.43;96643.73;127905;1093;32823;-85
2021/07/24 06:08:42;;;;;;;7.70;5.68;;;;;;;36.03;37.31;96630.97;128170;1092;22793;-84
2021/07/24 06:11:14;;;;;;;6.10;5.08;;;;;;;36.81;35.52;96631.80;128110;1092;44826;-86
2021/07/24 06:13:45;;;;;;;8.60;5.38;;;;;;;36.71;36.05;96627.41;128102;1092;47776;-84
2021/07/24 06:16:16;;;;;;;7.85;4.85;;;;;;;37.79;35.25;96635.19;128154;1093;24509;-86
2021/07/24 06:18:48;;;;;;;8.25;5.25;;;;;;;37.89;33.74;96634.75;128107;1093;28874;-86
2021/07/24 06:21:21;;;;;;;7.63;5.47;;;;;;;37.89;33.38;96631.22;125608;1093;2354127;-83
2021/07/24 06:23:52;;;;;;;5.50;4.90;;;;;;;38.00;31.83;96634.29;127862;1093;35331;-86
2021/07/24 06:26:23;;;;;;;5.10;4.40;;;;;;;37.84;33.06;96631.80;128126;1093;38906;-89
2021/07/24 06:28:54;;;;;;;8.20;4.78;;;;;;;38.69;32.22;96632.96;128196;1092;22798;-86
2021/07/24 06:31:26;;;;;;;7.45;4.93;;;;;;;38.54;31.07;96627.25;126583;1093;1787562;-85
2021/07/24 06:33:59;;;;;;;5.40;4.83;;;;;;;39.21;32.06;96622.70;128123;1093;22794;-86
2021/07/24 06:36:31;;;;;;;5.38;4.73;;;;;;;40.28;30.98;96629.39;128134;1093;22850;-85
2021/07/24 06:39:02;;;;;;;5.45;4.88;;;;;;;41.27;29.94;96620.59;128133;1092;23764;-86
2021/07/24 06:41:34;;;;;;;4.65;4.25;;;;;;;41.09;29.45;96621.52;128211;1092;22780;-91
2021/07/24 06:44:06;;;;;;;6.33;4.70;;;;;;;41.18;29.26;96632.55;128038;1092;22957;-88
2021/07/24 06:46:37;;;;;;;6.38;4.88;;;;;;;42.14;29.16;96620.05;128209;1091;23240;-87
2021/07/24 06:49:09;;;;;;;6.73;4.90;;;;;;;43.35;28.70;96632.94;128120;1092;39379;-87
2021/07/24 06:51:41;;;;;;;4.80;4.30;;;;;;;44.12;26.92;96629.12;128143;1093;23572;-90
2021/07/24 06:54:12;;;;;;;4.70;4.25;;;;;;;43.96;26.57;96632.58;128161;1091;22819;-89
2021/07/24 06:56:44;;;;;;;7.05;4.85;;;;;;;43.66;25.48;96634.17;128142;1092;22810;-90
2021/07/24 06:59:15;;;;;;;7.83;5.33;;;;;;;43.54;25.97;96634.09;128121;1091;24750;-89
2021/07/24 07:01:47;;;;;;;6.88;4.93;;;;;;;43.97;26.52;96634.11;128134;1092;22806;-90
2021/07/24 07:04:18;;;;;;;15.48;6.43;;;;;;;44.30;24.84;96632.73;128136;1093;23719;-92
2021/07/24 07:06:49;;;;;;;5.55;4.70;;;;;;;43.75;24.84;96628.39;128122;1092;24436;-90
2021/07/24 07:09:21;;;;;;;4.93;4.43;;;;;;;43.04;25.11;96630.90;128112;1091;56539;-93
2021/07/24 07:11:52;;;;;;;7.13;4.78;;;;;;;43.21;25.41;96637.38;128060;1093;99165;-90
2021/07/24 07:14:23;;;;;;;5.70;4.68;;;;;;;42.63;24.66;96635.81;128148;1092;24778;-85
2021/07/24 07:16:55;;;;;;;7.85;4.45;;;;;;;43.35;25.83;96641.31;128113;1093;22816;-87
2021/07/24 07:19:27;;;;;;;4.43;4.03;;;;;;;44.54;25.25;96640.72;128113;1091;30235;-87
2021/07/24 07:21:58;;;;;;;5.00;4.28;;;;;;;45.78;24.73;96631.11;128115;1091;24098;-89
2021/07/24 07:24:30;;;;;;;8.63;4.57;;;;;;;45.56;22.26;96631.88;128143;1092;22875;-86
2021/07/24 07:27:01;;;;;;;5.85;4.20;;;;;;;44.09;23.46;96630.10;128194;1092;26408;-92
2021/07/24 07:29:33;;;;;;;4.60;4.20;;;;;;;44.53;23.81;96630.80;128311;1091;22802;-92
2021/07/24 07:32:04;;;;;;;5.78;4.40;;;;;;;45.64;22.33;96632.13;128170;1093;24090;-93
2021/07/24 07:34:36;;;;;;;4.75;4.25;;;;;;;44.11;22.81;96635.21;128209;1093;29276;-92
2021/07/24 07:37:07;;;;;;;4.80;4.30;;;;;;;43.31;23.14;96629.62;128136;1092;84579;-91
2021/07/24 07:39:39;;;;;;;5.43;4.38;;;;;;;42.99;23.12;96626.05;128124;1092;29083;-90
2021/07/24 07:42:10;;;;;;;4.98;4.48;;;;;;;42.83;24.23;96630.19;128151;1093;30327;-89
2021/07/24 07:44:42;;;;;;;5.33;4.07;;;;;;;44.29;23.82;96640.35;128214;1092;27249;-92
2021/07/24 07:47:14;;;;;;;4.93;4.40;;;;;;;45.49;22.13;96638.78;128111;1093;26454;-92
2021/07/24 07:49:45;;;;;;;4.98;4.50;;;;;;;45.50;22.79;96633.94;128146;1092;24670;-86
2021/07/24 07:52:18;;;;;;;5.85;4.20;;;;;;;46.37;21.35;96639.04;128168;1091;39222;-86
2021/07/24 07:54:51;;;;;;;4.80;4.30;;;;;;;45.75;22.51;96632.90;128216;1092;22879;-86
2021/07/24 07:57:24;;;;;;;5.08;4.55;;;;;;;45.74;20.19;96642.55;128128;1091;22995;-86
2021/07/24 07:59:56;;;;;;;5.00;4.10;;;;;;;43.66;21.17;96637.73;128118;1092;39178;-85
2021/07/24 08:02:28;;;;;;;5.48;4.13;;;;;;;43.86;23.06;96645.22;128165;1091;25847;-85
2021/07/24 08:05:02;;;;;;;4.63;4.20;;;;;;;45.66;22.67;96635.97;128128;1092;22857;-85
2021/07/24 08:07:33;;;;;;;5.13;4.50;;;;;;;45.13;20.84;96640.55;128125;1092;29975;-86
2021/07/24 08:10:06;;;;;;;5.25;4.08;;;;;;;45.38;22.63;96635.98;128240;1092;22758;-85
2021/07/24 08:12:38;;;;;;;5.40;4.30;;;;;;;45.52;20.83;96634.95;128205;1092;22822;-85
2021/07/24 08:15:11;;;;;;;5.60;3.97;;;;;;;45.41;21.46;96626.56;128151;1093;22813;-84
2021/07/24 08:17:43;;;;;;;4.78;4.33;;;;;;;45.37;21.26;96628.11;128150;1093;26460;-83
2021/07/24 08:20:16;;;;;;;5.57;4.53;;;;;;;45.55;20.26;96624.75;128074;1092;23539;-85
2021/07/24 08:22:47;;;;;;;7.48;4.40;;;;;;;44.45;20.66;96619.30;128161;1092;22801;-86
2021/07/24 08:25:19;;;;;;;5.70;4.55;;;;;;;45.13;21.66;96620.95;128152;1092;22773;-86
2021/07/24 08:27:50;;;;;;;5.58;4.60;;;;;;;45.35;21.09;96622.25;128112;1091;23078;-85
2021/07/24 08:30:22;;;;;;;5.78;4.68;;;;;;;44.32;22.22;96622.56;128140;1091;22832;-86
2021/07/24 08:32:53;;;;;;;5.45;4.53;;;;;;;45.06;22.13;96615.88;128135;1092;30300;-86
2021/07/24 08:35:25;;;;;;;8.75;4.05;;;;;;;45.94;22.35;96616.27;128139;1091;22781;-86
2021/07/24 08:37:56;;;;;;;5.73;4.60;;;;;;;45.37;19.19;96617.67;128166;1091;23337;-86
2021/07/24 08:40:27;;;;;;;8.45;5.68;;;;;;;43.09;21.30;96619.03;128106;1092;22818;-86
2021/07/24 08:43:06;;;;;;;5.50;4.73;;;;;;;42.75;22.38;96611.59;128201;1093;22838;-86
2021/07/24 08:45:37;;;;;;;6.08;4.55;;;;;;;40.41;21.87;96609.70;128156;1093;23183;-86
2021/07/24 08:48:09;;;;;;;7.63;4.80;;;;;;;38.16;24.25;96602.80;128053;1091;51084;-85
2021/07/24 08:50:45;;;;;;;7.25;5.78;;;;;;;36.59;26.20;96597.85;128137;1089;24087;-85
2021/07/24 08:53:22;;;;;;;5.45;4.60;;;;;;;35.06;27.79;96608.42;128148;1092;28403;-89
2021/07/24 08:56:04;;;;;;;8.80;5.40;;;;;;;33.60;29.55;96602.05;128092;1092;36957;-89
2021/07/24 08:58:41;;;;;;;6.90;5.15;;;;;;;32.53;30.99;96600.08;128258;1092;22825;-89
2021/07/24 09:01:20;;;;;;;7.73;6.00;;;;;;;31.85;31.67;96601.30;128144;1091;22783;-88
2021/07/24 09:03:52;;;;;;;6.23;5.20;;;;;;;31.51;33.39;96598.67;128168;1093;22822;-88
2021/07/24 09:06:24;;;;;;;7.93;5.10;;;;;;;31.26;33.90;96597.12;128115;1092;22788;-89
2021/07/24 09:08:58;;;;;;;6.95;5.20;;;;;;;31.41;33.74;96602.38;128150;1093;22781;-89
2021/07/24 09:11:29;;;;;;;6.38;5.18;;;;;;;30.95;34.34;96599.07;128085;1093;23598;-89
2021/07/24 09:14:02;;;;;;;7.78;5.60;;;;;;;30.85;34.32;96602.75;128149;1092;24440;-88
2021/07/24 09:16:34;;;;;;;7.80;5.60;;;;;;;30.47;35.67;96588.33;128125;1092;23555;-88
2021/07/24 09:19:06;;;;;;;10.20;5.88;;;;;;;29.90;36.99;96601.80;128174;1091;22823;-90
2021/07/24 09:21:39;;;;;;;9.33;5.77;;;;;;;29.68;36.97;96591.05;128168;1093;22790;-91
2021/07/24 09:24:22;;;;;;;7.73;5.78;;;;;;;30.07;38.22;96585.25;128198;1092;23829;-95
2021/07/24 09:26:54;;;;;;;6.45;4.78;;;;;;;30.12;37.28;96584.02;128084;1093;23443;-89
2021/07/24 09:29:26;;;;;;;7.23;5.25;;;;;;;29.81;37.53;96589.37;128116;1093;24082;-91
2021/07/24 09:31:57;;;;;;;8.95;5.95;;;;;;;29.70;37.07;96582.44;128073;1092;22810;-89
2021/07/24 09:34:42;;;;;;;8.75;5.43;;;;;;;29.51;37.79;96581.83;128127;1093;26311;-88
2021/07/24 09:37:27;;;;;;;5.70;4.63;;;;;;;29.68;37.34;96582.84;128226;1092;24305;-89
2021/07/24 09:40:18;;;;;;;8.90;5.90;;;;;;;29.38;37.57;96578.00;128166;1092;23613;-90
2021/07/24 09:42:50;;;;;;;9.03;5.60;;;;;;;29.24;37.74;96578.09;128098;1093;25464;-89
2021/07/24 09:45:23;;;;;;;7.65;5.70;;;;;;;29.01;36.64;96580.61;128127;1093;26802;-88
2021/07/24 09:47:55;;;;;;;7.10;5.55;;;;;;;28.56;37.71;96583.13;128113;1093;27470;-90
2021/07/24 09:50:34;;;;;;;6.83;6.00;;;;;;;28.68;37.63;96588.92;128139;1091;32943;-90
2021/07/24 09:53:06;;;;;;;9.17;6.03;;;;;;;28.60;39.19;96576.50;128246;1093;23395;-88
2021/07/24 09:55:46;;;;;;;7.35;5.65;;;;;;;28.88;40.04;96578.34;128178;1092;25118;-90
2021/07/24 09:58:23;;;;;;;7.63;5.45;;;;;;;29.19;38.82;96576.58;128084;1093;24237;-89
2021/07/24 10:01:04;;;;;;;6.90;5.65;;;;;;;28.57;38.19;96574.54;128165;1092;23388;-89
2021/07/24 10:03:39;;;;;;;7.50;5.80;;;;;;;27.93;38.20;96580.17;128181;1092;23723;-89
2021/07/24 10:06:14;;;;;;;8.03;5.93;;;;;;;27.47;38.90;96577.47;128276;1092;22870;-90
2021/07/24 10:08:48;;;;;;;9.60;6.55;;;;;;;27.44;39.30;96580.95;128143;1093;26236;-89
2021/07/24 10:11:20;;;;;;;8.80;6.00;;;;;;;27.33;39.81;96572.02;128191;1092;24206;-91
2021/07/24 10:13:51;;;;;;;8.00;5.93;;;;;;;27.35;40.25;96566.96;128134;1092;23092;-89
2021/07/24 10:16:24;;;;;;;8.43;6.10;;;;;;;27.40;40.09;96567.34;128134;1092;31029;-89
2021/07/24 10:18:56;;;;;;;9.98;5.70;;;;;;;27.36;41.04;96571.23;128110;1093;24074;-89
2021/07/24 10:21:28;;;;;;;7.35;5.48;;;;;;;27.31;41.73;96568.88;128162;1093;22810;-89
2021/07/24 10:23:59;;;;;;;8.83;5.73;;;;;;;27.78;41.69;96565.80;128158;1093;23048;-89
2021/07/24 10:26:36;;;;;;;9.20;6.10;;;;;;;28.09;41.87;96560.67;128143;1093;22825;-89
2021/07/24 10:29:10;;;;;;;10.48;6.25;;;;;;;28.31;41.44;96561.42;128234;1091;26264;-88
2021/07/24 10:31:49;;;;;;;9.20;6.70;;;;;;;27.97;40.69;96561.86;128143;1090;22793;-88
2021/07/24 10:34:26;;;;;;;10.20;6.18;;;;;;;27.58;41.02;96556.44;128131;1091;25890;-88
2021/07/24 10:36:57;;;;;;;9.43;6.38;;;;;;;27.38;41.41;96556.06;128175;1093;24449;-89
2021/07/24 10:39:29;;;;;;;9.98;6.33;;;;;;;27.26;41.90;96561.11;128150;1092;27197;-87
2021/07/24 10:42:14;;;;;;;9.13;6.18;;;;;;;27.27;42.65;96563.45;128161;1092;26026;-89
2021/07/24 10:44:46;;;;;;;8.10;5.48;;;;;;;27.12;41.81;96562.66;128149;1091;32847;-89
2021/07/24 10:47:19;;;;;;;8.25;6.10;;;;;;;26.96;42.42;96559.49;128177;1092;24873;-89
2021/07/24 10:50:04;;;;;;;8.10;6.20;;;;;;;26.98;42.10;96551.72;128141;1091;23185;-89
2021/07/24 10:53:11;;;;;;;8.23;5.95;;;;;;;26.93;42.23;96557.55;128259;1092;22786;-89
2021/07/24 10:55:51;;;;;;;9.05;5.68;;;;;;;26.83;41.91;96564.52;128144;1092;26230;-89
2021/07/24 10:58:25;;;;;;;8.10;6.18;;;;;;;26.78;41.82;96555.97;128125;1092;24748;-88
2021/07/24 11:00:58;;;;;;;8.58;6.05;;;;;;;26.83;42.17;96544.70;128121;1093;23491;-89
2021/07/24 11:03:35;;;;;;;8.90;6.28;;;;;;;26.84;42.05;96559.85;128178;1093;22838;-87
2021/07/24 11:06:36;;;;;;;8.43;6.15;;;;;;;26.99;41.89;96550.55;128248;1092;24129;-88
2021/07/24 11:09:20;;;;;;;8.68;6.38;;;;;;;27.01;41.18;96553.69;128157;1093;25250;-89
2021/07/24 11:12:08;;;;;;;8.93;5.93;;;;;;;27.17;41.53;96551.41;128069;1093;26571;-89
2021/07/24 11:14:58;;;;;;;8.08;6.00;;;;;;;27.06;41.95;96555.27;128237;1092;23835;-87
2021/07/24 11:17:30;;;;;;;8.55;6.18;;;;;;;26.88;42.82;96555.97;128136;1091;29894;-90
2021/07/24 11:20:47;;;;;;;8.35;6.40;;;;;;;26.80;42.49;96554.41;128156;1093;23098;-88
2021/07/24 11:23:19;;;;;;;8.90;6.50;;;;;;;26.67;42.50;96555.93;128142;1092;48073;-87
2021/07/24 11:25:52;;;;;;;9.18;6.40;;;;;;;26.47;42.18;96546.55;128153;1092;23688;-88
2021/07/24 11:28:24;;;;;;;12.25;7.83;;;;;;;26.31;42.72;96550.31;128138;1093;28764;-88
2021/07/24 11:31:05;;;;;;;12.85;8.58;;;;;;;26.25;43.15;96546.42;128161;1092;25871;-90
2021/07/24 11:33:40;;;;;;;10.60;6.50;;;;;;;26.12;43.20;96547.91;128195;1093;23773;-90
2021/07/24 11:36:15;;;;;;;8.33;6.70;;;;;;;26.25;44.16;96540.21;128145;1093;27196;-88
2021/07/24 11:38:46;;;;;;;9.20;6.30;;;;;;;26.59;44.71;96549.67;128150;1093;24999;-88
2021/07/24 11:41:18;;;;;;;9.15;6.20;;;;;;;26.82;43.46;96540.42;128164;1093;24595;-87
2021/07/24 11:43:58;;;;;;;8.75;6.30;;;;;;;26.77;43.19;96538.09;128170;1091;26026;-90
2021/07/24 11:46:30;;;;;;;7.78;6.10;;;;;;;26.74;43.80;96552.44;128535;1093;24246;-89
2021/07/24 11:49:05;;;;;;;8.38;6.40;;;;;;;26.78;44.17;96540.42;129951;1092;23541;-90
2021/07/24 11:51:36;;;;;;;7.95;5.83;;;;;;;26.79;43.99;96547.41;130011;1092;22797;-90
2021/07/24 11:54:08;;;;;;;11.83;6.83;;;;;;;26.74;43.57;96536.12;128648;1092;24056;-88